createdAt,value
2018-07-26T00:00:14.275Z,74.34
2018-07-26T00:01:24.090Z,74.34
2018-07-26T00:02:34.219Z,74.29
2018-07-26T00:03:44.289Z,74.44
2018-07-26T00:04:54.089Z,75.59
2018-07-26T00:06:04.164Z,75.11
2018-07-26T00:07:13.968Z,77.81
2018-07-26T00:08:24.084Z,77.33
2018-07-26T00:09:33.883Z,77.61
2018-07-26T00:10:43.697Z,77.67
2018-07-26T00:11:53.508Z,78.25
2018-07-26T00:13:03.298Z,78.53
2018-07-26T00:14:13.454Z,78.34
2018-07-26T00:15:23.249Z,78.44
2018-07-26T00:16:33.057Z,78.73
2018-07-26T00:17:43.160Z,79.07
2018-07-26T00:18:53.234Z,78.69
2018-07-26T00:20:02.802Z,79.94
2018-07-26T00:21:12.621Z,79.65
2018-07-26T00:22:22.701Z,79.55
2018-07-26T00:23:32.494Z,80.22
2018-07-26T00:24:41.771Z,80.51
2018-07-26T00:25:51.881Z,81.19
2018-07-26T00:27:01.960Z,80.96
2018-07-26T00:28:11.751Z,81.34
2018-07-26T00:29:21.803Z,81.43
2018-07-26T00:30:31.880Z,81.34
2018-07-26T00:31:41.719Z,81.53
2018-07-26T00:32:51.508Z,82.01
2018-07-26T00:34:01.595Z,82.4
2018-07-26T00:35:11.379Z,82.1
2018-07-26T00:36:21.178Z,82.68
2018-07-26T00:37:31.019Z,82.78
2018-07-26T00:38:41.117Z,82.97
2018-07-26T00:39:50.921Z,83.07
2018-07-26T00:41:00.454Z,83.07
2018-07-26T00:42:10.263Z,82.87
2018-07-26T00:43:20.373Z,83.45
2018-07-26T00:44:30.451Z,82.97
2018-07-26T00:45:40.263Z,82.78
2018-07-26T00:46:50.079Z,82.4
2018-07-26T00:48:00.165Z,82.4
2018-07-26T00:49:10.276Z,82.59
2018-07-26T00:50:20.086Z,82.59
2018-07-26T00:51:30.154Z,82.78
2018-07-26T00:52:39.964Z,83.16
2018-07-26T00:53:49.787Z,82.87
2018-07-26T00:54:59.919Z,82.4
2018-07-26T00:56:09.972Z,82.1
2018-07-26T00:57:19.758Z,81.34
2018-07-26T00:58:29.837Z,81.63
2018-07-26T00:59:39.628Z,81.43
2018-07-26T01:00:49.485Z,81.05
2018-07-26T01:01:59.274Z,81.53
2018-07-26T01:03:09.330Z,80.86
2018-07-26T01:04:19.413Z,79.52
2018-07-26T01:05:29.207Z,79.61
2018-07-26T01:06:39.051Z,79.71
2018-07-26T01:07:48.837Z,79.9
2018-07-26T01:08:58.647Z,79.8
2018-07-26T01:10:08.728Z,79.71
2018-07-26T01:11:18.794Z,79.13
2018-07-26T01:12:28.366Z,79.52
2018-07-26T01:13:38.440Z,78.65
2018-07-26T01:14:48.243Z,79.71
2018-07-26T01:15:57.765Z,79.09
2018-07-26T01:17:07.294Z,79.03
2018-07-26T01:18:17.155Z,78.8
2018-07-26T01:19:26.687Z,79.03
2018-07-26T01:20:36.487Z,79.03
2018-07-26T01:21:46.309Z,78.75
2018-07-26T01:22:56.385Z,78.55
2018-07-26T01:24:06.224Z,78.55
2018-07-26T01:25:16.295Z,78.55
2018-07-26T01:26:26.090Z,78.55
2018-07-26T01:27:36.175Z,78.84
2018-07-26T01:28:45.979Z,78.27
2018-07-26T01:29:55.827Z,78.36
2018-07-26T01:31:05.624Z,77.5
2018-07-26T01:32:15.699Z,78.27
2018-07-26T01:33:25.237Z,78.17
2018-07-26T01:34:35.035Z,77.69
2018-07-26T01:35:45.145Z,77.31
2018-07-26T01:36:54.948Z,77.21
2018-07-26T01:38:04.758Z,77.69
2018-07-26T01:39:14.569Z,77.5
2018-07-26T01:40:24.653Z,77.31
2018-07-26T01:41:34.504Z,77.11
2018-07-26T01:42:44.307Z,76.82
2018-07-26T01:43:54.389Z,77.69
2018-07-26T01:45:04.185Z,77.59
2018-07-26T01:46:13.737Z,77.21
2018-07-26T01:47:23.857Z,77.31
2018-07-26T01:48:33.917Z,77.69
2018-07-26T01:49:43.708Z,77.59
2018-07-26T01:50:53.522Z,77.31
2018-07-26T01:52:03.595Z,77.11
2018-07-26T01:53:13.185Z,77.21
2018-07-26T01:54:23.241Z,77.31
2018-07-26T01:55:33.033Z,77.69
2018-07-26T01:56:43.103Z,77.21
2018-07-26T01:57:53.166Z,77.31
2018-07-26T01:59:03.294Z,77.4
2018-07-26T02:00:13.358Z,76.64
2018-07-26T02:01:22.900Z,76.64
2018-07-26T02:02:32.958Z,76.34
2018-07-26T02:03:43.034Z,76.64
2018-07-26T02:04:53.144Z,75.96
2018-07-26T02:06:02.415Z,76.54
2018-07-26T02:07:12.216Z,76.44
2018-07-26T02:08:22.296Z,76.73
2018-07-26T02:09:31.817Z,76.64
2018-07-26T02:10:42.055Z,77.11
2018-07-26T02:11:52.142Z,77.5
2018-07-26T02:13:02.230Z,77.5
2018-07-26T02:14:12.034Z,77.31
2018-07-26T02:15:22.106Z,76.64
2018-07-26T02:16:32.223Z,76.54
2018-07-26T02:17:42.277Z,76.92
2018-07-26T02:18:52.075Z,77.01
2018-07-26T02:20:02.142Z,76.5
2018-07-26T02:21:11.935Z,77.11
2018-07-26T02:22:21.782Z,77.5
2018-07-26T02:23:31.589Z,76.92
2018-07-26T02:24:41.397Z,76.73
2018-07-26T02:25:51.215Z,76.64
2018-07-26T02:27:00.739Z,77.01
2018-07-26T02:28:10.849Z,76.21
2018-07-26T02:29:20.640Z,76.34
2018-07-26T02:30:30.437Z,76.82
2018-07-26T02:31:40.225Z,77.21
2018-07-26T02:32:50.301Z,77.31
2018-07-26T02:34:00.429Z,77.56
2018-07-26T02:35:10.240Z,77.08
2018-07-26T02:36:19.773Z,77.56
2018-07-26T02:37:29.847Z,77.21
2018-07-26T02:38:39.644Z,77.5
2018-07-26T02:39:49.755Z,77.08
2018-07-26T02:40:59.834Z,77.26
2018-07-26T02:42:09.923Z,77.46
2018-07-26T02:43:19.733Z,77.26
2018-07-26T02:44:29.278Z,77.36
2018-07-26T02:45:39.420Z,77.08
2018-07-26T02:46:49.214Z,77.75
2018-07-26T02:47:59.281Z,78.13
2018-07-26T02:49:09.091Z,78.23
2018-07-26T02:50:19.154Z,78.13
2018-07-26T02:51:29.033Z,77.65
2018-07-26T02:52:39.139Z,79.19
2018-07-26T02:53:48.950Z,79.09
2018-07-26T02:54:59.036Z,79.19
2018-07-26T02:56:08.847Z,78.52
2018-07-26T02:57:18.971Z,78.61
2018-07-26T02:58:29.079Z,77.94
2018-07-26T02:59:38.871Z,78.03
2018-07-26T03:03:38.268Z,79.09
2018-07-26T03:04:48.072Z,79.14
2018-07-26T03:05:58.155Z,79.05
2018-07-26T03:07:08.315Z,79.34
2018-07-26T03:08:18.780Z,79.53
2018-07-26T03:09:28.102Z,79.63
2018-07-26T03:10:38.191Z,79.53
2018-07-26T03:11:47.725Z,79.05
2018-07-26T03:12:57.572Z,79.14
2018-07-26T03:14:07.687Z,79.14
2018-07-26T03:15:17.817Z,79.72
2018-07-26T03:16:27.346Z,79.63
2018-07-26T03:17:36.879Z,78.77
2018-07-26T03:18:46.976Z,79.05
2018-07-26T03:19:57.074Z,79.05
2018-07-26T03:21:06.771Z,79.34
2018-07-26T03:22:16.907Z,79.82
2018-07-26T03:23:26.458Z,79.53
2018-07-26T03:24:36.263Z,79.34
2018-07-26T03:25:46.060Z,79.72
2018-07-26T03:26:56.187Z,79.05
2018-07-26T03:28:05.975Z,79.72
2018-07-26T03:29:16.054Z,79.63
2018-07-26T03:30:25.863Z,79.63
2018-07-26T03:31:35.927Z,79.53
2018-07-26T03:32:45.507Z,79.05
2018-07-26T03:33:55.579Z,78.96
2018-07-26T03:35:05.648Z,79.82
2018-07-26T03:36:15.458Z,79.63
2018-07-26T03:37:25.521Z,79.63
2018-07-26T03:38:35.091Z,80.01
2018-07-26T03:39:44.611Z,79.63
2018-07-26T03:40:54.140Z,79.44
2018-07-26T03:42:04.233Z,79.24
2018-07-26T03:43:14.032Z,79.44
2018-07-26T03:44:24.137Z,79.82
2018-07-26T03:45:33.665Z,79.44
2018-07-26T03:46:43.472Z,79.72
2018-07-26T03:47:53.553Z,79.44
2018-07-26T03:49:03.076Z,79.53
2018-07-26T03:50:12.923Z,79.44
2018-07-26T03:51:23.056Z,79.72
2018-07-26T03:52:33.421Z,79.91
2018-07-26T03:53:43.642Z,79.53
2018-07-26T03:54:53.729Z,78.86
2018-07-26T03:56:03.864Z,79.34
2018-07-26T03:57:13.388Z,79.63
2018-07-26T03:58:23.445Z,79.76
2018-07-26T03:59:33.256Z,79.53
2018-07-26T04:00:42.781Z,79.47
2018-07-26T04:01:52.895Z,80.05
2018-07-26T04:03:02.700Z,79.53
2018-07-26T04:04:12.496Z,79.09
2018-07-26T04:05:22.619Z,79.47
2018-07-26T04:06:32.540Z,79.76
2018-07-26T04:07:42.656Z,79.67
2018-07-26T04:08:52.451Z,79.96
2018-07-26T04:10:02.515Z,79.57
2018-07-26T04:11:12.057Z,79.67
2018-07-26T04:12:22.135Z,79.19
2018-07-26T04:13:31.989Z,79.86
2018-07-26T04:14:42.054Z,79.76
2018-07-26T04:15:51.579Z,79.09
2018-07-26T04:17:01.648Z,78.7
2018-07-26T04:18:11.442Z,78.9
2018-07-26T04:19:21.297Z,78.52
2018-07-26T04:20:31.079Z,78.42
2018-07-26T04:21:41.157Z,77.75
2018-07-26T04:22:50.945Z,78.13
2018-07-26T04:24:00.748Z,78.13
2018-07-26T04:25:10.877Z,78.52
2018-07-26T04:26:20.954Z,77.56
2018-07-26T04:27:31.027Z,76.98
2018-07-26T04:28:40.577Z,77.5
2018-07-26T04:29:50.387Z,78.32
2018-07-26T04:31:00.503Z,77.46
2018-07-26T04:32:09.818Z,78.42
2018-07-26T04:33:20.308Z,78.23
2018-07-26T04:34:30.112Z,77.94
2018-07-26T04:35:39.626Z,78.61
2018-07-26T04:36:49.477Z,79.09
2018-07-26T04:37:59.264Z,78.42
2018-07-26T04:39:08.795Z,77.36
2018-07-26T04:40:18.859Z,77.94
2018-07-26T04:41:28.675Z,78.03
2018-07-26T04:42:38.244Z,78.13
2018-07-26T04:43:48.029Z,78.23
2018-07-26T04:44:57.846Z,78.13
2018-07-26T04:46:07.634Z,77.46
2018-07-26T04:47:17.687Z,77.46
2018-07-26T04:48:27.252Z,77.94
2018-07-26T04:49:36.514Z,77.75
2018-07-26T04:50:46.308Z,77.26
2018-07-26T04:51:56.394Z,78.03
2018-07-26T04:53:05.927Z,77.94
2018-07-26T04:54:15.495Z,77.26
2018-07-26T04:55:25.295Z,77.56
2018-07-26T04:56:35.108Z,77.36
2018-07-26T04:57:45.185Z,77.56
2018-07-26T04:58:55.252Z,77.56
2018-07-26T05:00:05.105Z,77.56
2018-07-26T05:01:14.905Z,77.17
2018-07-26T05:02:24.975Z,77.65
2018-07-26T05:03:35.040Z,77.17
2018-07-26T05:04:44.561Z,77.75
2018-07-26T05:05:54.413Z,77.26
2018-07-26T05:07:04.212Z,76.88
2018-07-26T05:08:14.392Z,76.5
2018-07-26T05:09:23.928Z,77.4
2018-07-26T05:10:34.010Z,76.98
2018-07-26T05:11:44.150Z,77.01
2018-07-26T05:12:53.970Z,77.17
2018-07-26T05:14:03.757Z,77.08
2018-07-26T05:15:13.558Z,77.17
2018-07-26T05:16:23.083Z,77.59
2018-07-26T05:17:33.201Z,77.31
2018-07-26T05:18:42.736Z,76.92
2018-07-26T05:19:52.802Z,76.15
2018-07-26T05:21:02.614Z,76.82
2018-07-26T05:22:12.398Z,75.96
2018-07-26T05:23:22.521Z,76.34
2018-07-26T05:24:32.623Z,77.21
2018-07-26T05:25:42.707Z,76.64
2018-07-26T05:26:52.777Z,75.87
2018-07-26T05:28:02.295Z,76.06
2018-07-26T05:29:12.162Z,75.67
2018-07-26T05:30:22.217Z,75.48
2018-07-26T05:31:32.026Z,75.67
2018-07-26T05:32:42.099Z,75.32
2018-07-26T05:33:51.617Z,75.62
2018-07-26T05:35:01.472Z,75.32
2018-07-26T05:36:11.004Z,75.48
2018-07-26T05:37:21.053Z,75.38
2018-07-26T05:38:30.889Z,74.9
2018-07-26T05:39:40.156Z,75
2018-07-26T05:40:49.993Z,75.38
2018-07-26T05:42:00.065Z,74.71
2018-07-26T05:43:09.935Z,74.62
2018-07-26T05:44:19.933Z,74.33
2018-07-26T05:45:30.010Z,75.38
2018-07-26T05:46:39.866Z,74.71
2018-07-26T05:47:49.663Z,74.43
2018-07-26T05:48:59.733Z,75.57
2018-07-26T05:50:09.538Z,75.48
2018-07-26T05:51:19.328Z,74.52
2018-07-26T05:52:29.473Z,74.23
2018-07-26T05:53:39.578Z,74.27
2018-07-26T05:54:49.368Z,73.98
2018-07-26T05:55:58.636Z,74.71
2018-07-26T05:57:08.692Z,75.32
2018-07-26T05:58:18.811Z,74.55
2018-07-26T05:59:28.610Z,73.79
2018-07-26T06:00:38.674Z,73.88
2018-07-26T06:01:48.489Z,74.37
2018-07-26T06:02:58.560Z,73.88
2018-07-26T06:04:08.133Z,74.08
2018-07-26T06:05:17.939Z,74.17
2018-07-26T06:06:27.733Z,74.65
2018-07-26T06:07:37.524Z,74.08
2018-07-26T06:08:47.600Z,74.46
2018-07-26T06:09:57.459Z,73.41
2018-07-26T06:11:07.254Z,74.65
2018-07-26T06:12:17.048Z,74.65
2018-07-26T06:13:27.098Z,74.27
2018-07-26T06:14:36.915Z,73.5
2018-07-26T06:15:47.035Z,73.41
2018-07-26T06:16:57.121Z,73.41
2018-07-26T06:18:07.314Z,73.5
2018-07-26T06:19:17.130Z,73.69
2018-07-26T06:20:27.009Z,73.6
2018-07-26T06:21:37.242Z,73.69
2018-07-26T06:22:46.770Z,74.17
2018-07-26T06:23:56.854Z,73.5
2018-07-26T06:25:06.669Z,72.58
2018-07-26T06:26:16.781Z,72.67
2018-07-26T06:27:26.895Z,73.15
2018-07-26T06:28:36.421Z,72.67
2018-07-26T06:29:46.216Z,72.19
2018-07-26T06:30:56.268Z,72.38
2018-07-26T06:32:05.789Z,72.48
2018-07-26T06:33:15.690Z,72.09
2018-07-26T06:34:25.913Z,72.86
2018-07-26T06:35:35.704Z,71.52
2018-07-26T06:36:50.787Z,72.09
2018-07-26T06:38:00.387Z,71.42
2018-07-26T06:39:10.763Z,71.33
2018-07-26T06:40:20.313Z,72.19
2018-07-26T06:41:30.397Z,71.61
2018-07-26T06:42:40.489Z,71.42
2018-07-26T06:43:50.554Z,72
2018-07-26T06:45:00.414Z,71.42
2018-07-26T06:46:10.201Z,71.46
2018-07-26T06:47:20.000Z,71.46
2018-07-26T06:48:30.076Z,71.17
2018-07-26T06:49:39.599Z,70.78
2018-07-26T06:50:49.718Z,71.17
2018-07-26T06:51:59.496Z,70.21
2018-07-26T06:53:08.805Z,71.26
2018-07-26T06:54:18.635Z,71.26
2018-07-26T06:55:28.186Z,70.21
2018-07-26T06:56:38.297Z,70.21
2018-07-26T06:57:47.554Z,70.05
2018-07-26T06:58:57.339Z,69.85
2018-07-26T07:00:06.591Z,69.57
2018-07-26T07:01:15.576Z,69.09
2018-07-26T07:02:25.420Z,69.18
2018-07-26T07:03:35.510Z,69.18
2018-07-26T07:04:45.577Z,69.28
2018-07-26T07:05:55.373Z,69.18
2018-07-26T07:07:05.456Z,69.18
2018-07-26T07:08:15.572Z,69.18
2018-07-26T07:09:25.367Z,69.67
2018-07-26T07:10:35.443Z,68.99
2018-07-26T07:11:45.498Z,68.8
2018-07-26T07:12:55.022Z,68.51
2018-07-26T07:14:04.883Z,68.99
2018-07-26T07:15:14.686Z,68.03
2018-07-26T07:16:24.513Z,67.68
2018-07-26T07:17:34.594Z,67.68
2018-07-26T07:18:44.676Z,67.77
2018-07-26T07:19:54.805Z,67.77
2018-07-26T07:21:04.621Z,68.74
2018-07-26T07:22:14.434Z,68.51
2018-07-26T07:23:24.236Z,68.44
2018-07-26T07:24:34.318Z,67.97
2018-07-26T07:25:44.184Z,68.54
2018-07-26T07:26:53.998Z,68.54
2018-07-26T07:28:03.531Z,67.97
2018-07-26T07:29:13.326Z,68.06
2018-07-26T07:30:23.123Z,67.97
2018-07-26T07:31:32.984Z,67.23
2018-07-26T07:32:42.777Z,66.65
2018-07-26T07:33:52.840Z,66.46
2018-07-26T07:35:02.908Z,65.98
2018-07-26T07:36:12.992Z,65.5
2018-07-26T07:37:23.112Z,65.69
2018-07-26T07:38:33.204Z,65.59
2018-07-26T07:39:43.296Z,65.53
2018-07-26T07:40:53.378Z,65.05
2018-07-26T07:42:03.485Z,65.63
2018-07-26T07:43:13.330Z,65.24
2018-07-26T07:44:23.438Z,65.53
2018-07-26T07:45:33.242Z,65.53
2018-07-26T07:46:43.241Z,65.05
2018-07-26T07:47:53.309Z,64.37
2018-07-26T07:49:03.421Z,64.28
2018-07-26T07:50:13.227Z,65.53
2018-07-26T07:51:23.061Z,64.56
2018-07-26T07:52:33.115Z,64.18
2018-07-26T07:53:43.176Z,63.73
2018-07-26T07:54:53.041Z,63.15
2018-07-26T07:56:03.106Z,63.98
2018-07-26T07:57:13.185Z,64.08
2018-07-26T07:58:23.265Z,63.21
2018-07-26T07:59:33.461Z,64.28
2018-07-26T08:00:43.918Z,64.66
2018-07-26T08:01:53.732Z,65.05
2018-07-26T08:03:03.812Z,64.73
2018-07-26T08:04:13.348Z,65.05
2018-07-26T08:05:23.491Z,64.28
2018-07-26T08:06:33.218Z,64.28
2018-07-26T08:07:43.052Z,64.47
2018-07-26T08:08:53.145Z,64.37
2018-07-26T08:10:02.935Z,64.37
2018-07-26T08:11:12.572Z,64.47
2018-07-26T08:12:22.917Z,64.21
2018-07-26T08:13:33.067Z,64.08
2018-07-26T08:14:42.885Z,64.56
2018-07-26T08:15:52.960Z,64.18
2018-07-26T08:17:03.036Z,64.37
2018-07-26T08:18:12.882Z,64.47
2018-07-26T08:19:22.691Z,64.66
2018-07-26T08:20:32.496Z,64.28
2018-07-26T08:21:42.295Z,64.56
2018-07-26T08:22:51.830Z,64.76
2018-07-26T08:24:01.751Z,64.28
2018-07-26T08:25:11.833Z,65.24
2018-07-26T08:26:21.638Z,64.86
2018-07-26T08:27:30.902Z,64.86
2018-07-26T08:28:40.701Z,64.31
2018-07-26T08:29:50.822Z,64.18
2018-07-26T08:31:00.912Z,63.98
2018-07-26T08:32:10.969Z,64.37
2018-07-26T08:33:20.784Z,63.34
2018-07-26T08:34:30.861Z,64.4
2018-07-26T08:35:40.999Z,64.69
2018-07-26T08:36:50.798Z,63.54
2018-07-26T08:38:00.875Z,63.34
2018-07-26T08:39:10.697Z,64.21
2018-07-26T08:40:20.513Z,64.21
2018-07-26T08:41:30.381Z,63.57
2018-07-26T08:42:40.477Z,64.24
2018-07-26T08:43:50.564Z,63.57
2018-07-26T08:45:00.368Z,63.57
2018-07-26T08:46:10.455Z,63.47
2018-07-26T08:47:20.300Z,63.31
2018-07-26T08:48:30.386Z,62.63
2018-07-26T08:49:40.205Z,62.63
2018-07-26T08:50:50.276Z,62.63
2018-07-26T08:52:00.073Z,61.89
2018-07-26T08:53:09.772Z,61.6
2018-07-26T08:54:20.044Z,61.31
2018-07-26T08:55:29.725Z,60.64
2018-07-26T08:56:39.793Z,61.15
2018-07-26T08:57:49.613Z,60.76
2018-07-26T08:58:59.728Z,60.67
2018-07-26T09:00:09.528Z,59.8
2018-07-26T09:01:19.054Z,60.11
2018-07-26T09:02:29.114Z,59.92
2018-07-26T09:03:38.965Z,58.86
2018-07-26T09:04:48.561Z,59.15
2018-07-26T09:05:58.366Z,58.67
2018-07-26T09:07:08.179Z,59.53
2018-07-26T09:08:17.978Z,58.31
2018-07-26T09:09:28.067Z,58.5
2018-07-26T09:10:37.652Z,58.02
2018-07-26T09:11:47.484Z,58.12
2018-07-26T09:12:57.283Z,58.4
2018-07-26T09:14:06.555Z,58.12
2018-07-26T09:15:16.353Z,57.54
2018-07-26T09:16:26.215Z,58.21
2018-07-26T09:17:36.092Z,57.73
2018-07-26T09:18:46.165Z,58.44
2018-07-26T09:19:56.238Z,57.66
2018-07-26T09:21:06.336Z,57.66
2018-07-26T09:22:16.464Z,56.98
2018-07-26T09:23:26.268Z,56.98
2018-07-26T09:24:36.135Z,56.79
2018-07-26T09:25:45.963Z,57.08
2018-07-26T09:26:55.762Z,56.98
2018-07-26T09:28:05.344Z,56.14
2018-07-26T09:29:15.457Z,56.5
2018-07-26T09:30:25.254Z,55.94
2018-07-26T09:31:35.056Z,56.92
2018-07-26T09:32:45.131Z,56.79
2018-07-26T09:33:55.329Z,56.72
2018-07-26T09:35:04.868Z,56.14
2018-07-26T09:36:14.956Z,56.43
2018-07-26T09:37:24.769Z,55.94
2018-07-26T09:38:34.845Z,55.56
2018-07-26T09:39:44.687Z,55.46
2018-07-26T09:40:54.494Z,55.66
2018-07-26T09:42:04.676Z,56.04
2018-07-26T09:43:14.488Z,55.17
2018-07-26T09:44:24.582Z,55.36
2018-07-26T09:45:33.895Z,55.46
2018-07-26T09:46:43.427Z,56.02
2018-07-26T09:47:52.972Z,55.73
2018-07-26T09:49:02.506Z,55.94
2018-07-26T09:50:12.589Z,56.34
2018-07-26T09:51:22.707Z,55.85
2018-07-26T09:52:32.236Z,55.07
2018-07-26T09:53:41.501Z,55.07
2018-07-26T09:54:51.616Z,55.68
2018-07-26T09:56:01.261Z,54.88
2018-07-26T09:57:11.134Z,55.4
2018-07-26T09:58:21.206Z,55
2018-07-26T09:59:31.016Z,54.91
2018-07-26T10:00:40.840Z,54.43
2018-07-26T10:01:50.373Z,53.94
2018-07-26T10:03:00.229Z,54.71
2018-07-26T10:04:10.286Z,54.45
2018-07-26T10:05:20.367Z,53.97
2018-07-26T10:06:30.192Z,54.35
2018-07-26T10:07:40.256Z,54.06
2018-07-26T10:08:50.115Z,53.39
2018-07-26T10:10:00.202Z,53.77
2018-07-26T10:11:10.278Z,54.16
2018-07-26T10:12:20.367Z,54.28
2018-07-26T10:13:29.899Z,54.19
2018-07-26T10:14:40.022Z,53.41
2018-07-26T10:15:49.983Z,52.73
2018-07-26T10:17:00.447Z,53.31
2018-07-26T10:18:10.499Z,53.31
2018-07-26T10:19:20.300Z,52.93
2018-07-26T10:20:30.427Z,53.02
2018-07-26T10:21:40.506Z,52.28
2018-07-26T10:22:50.589Z,52.06
2018-07-26T10:24:00.652Z,53.02
2018-07-26T10:25:10.455Z,52.37
2018-07-26T10:26:20.596Z,52.66
2018-07-26T10:27:30.402Z,51.79
2018-07-26T10:28:40.222Z,52.15
2018-07-26T10:29:49.761Z,52.47
2018-07-26T10:30:59.553Z,52.56
2018-07-26T10:32:09.414Z,51.89
2018-07-26T10:33:19.218Z,52.08
2018-07-26T10:34:29.287Z,51.89
2018-07-26T10:35:39.353Z,51.21
2018-07-26T10:36:49.167Z,51.5
2018-07-26T10:37:59.000Z,51.98
2018-07-26T10:39:08.527Z,51.79
2018-07-26T10:40:18.332Z,51.11
2018-07-26T10:41:28.402Z,51.4
2018-07-26T10:42:38.209Z,51.53
2018-07-26T10:43:48.331Z,51.72
2018-07-26T10:44:58.127Z,51.14
2018-07-26T10:46:07.665Z,51.14
2018-07-26T10:47:17.751Z,52.01
2018-07-26T10:48:27.831Z,51.16
2018-07-26T10:49:37.973Z,51.14
2018-07-26T10:50:48.035Z,50.68
2018-07-26T10:51:57.842Z,50.38
2018-07-26T10:53:07.631Z,50.87
2018-07-26T10:54:17.700Z,51.16
2018-07-26T10:55:27.820Z,51.04
2018-07-26T10:56:37.642Z,50.68
2018-07-26T10:57:47.718Z,50.87
2018-07-26T10:58:57.534Z,50.77
2018-07-26T11:00:06.534Z,50.58
2018-07-26T11:01:16.488Z,50.21
2018-07-26T11:02:26.564Z,49.54
2018-07-26T11:03:36.113Z,50.02
2018-07-26T11:04:46.381Z,49.73
2018-07-26T11:05:56.468Z,49.63
2018-07-26T11:07:06.061Z,49.92
2018-07-26T11:08:15.580Z,50.38
2018-07-26T11:09:25.099Z,50.87
2018-07-26T11:10:34.652Z,51.16
2018-07-26T11:11:44.470Z,51.16
2018-07-26T11:12:54.055Z,50.68
2018-07-26T11:14:03.853Z,50.19
2018-07-26T11:15:13.680Z,49.63
2018-07-26T11:16:24.015Z,50.31
2018-07-26T11:17:34.253Z,49.92
2018-07-26T11:18:44.119Z,49.85
2018-07-26T11:19:54.275Z,49.44
2018-07-26T11:21:04.098Z,49.17
2018-07-26T11:22:13.638Z,49.46
2018-07-26T11:23:23.453Z,49.17
2018-07-26T11:24:33.317Z,49.39
2018-07-26T11:25:43.563Z,48.61
2018-07-26T11:26:53.401Z,48.9
2018-07-26T11:28:03.508Z,48.41
2018-07-26T11:29:13.598Z,47.05
2018-07-26T11:30:23.730Z,48.8
2018-07-26T11:31:33.529Z,49.27
2018-07-26T11:32:43.611Z,48.58
2018-07-26T11:33:53.165Z,48.88
2018-07-26T11:35:03.246Z,48.97
2018-07-26T11:36:13.097Z,47.93
2018-07-26T11:37:22.667Z,47.27
2018-07-26T11:38:32.476Z,47.13
2018-07-26T11:39:42.005Z,45.29
2018-07-26T11:40:52.075Z,43.98
2018-07-26T11:42:02.221Z,43.8
2018-07-26T11:43:12.317Z,43.16
2018-07-26T11:44:22.390Z,42.03
2018-07-26T11:45:32.472Z,41.17
2018-07-26T11:46:42.550Z,39.62
2018-07-26T11:47:52.399Z,39.17
2018-07-26T11:49:02.218Z,38.41
2018-07-26T11:50:12.245Z,37.46
2018-07-26T11:51:22.147Z,36.4
2018-07-26T11:52:31.956Z,37.01
2018-07-26T11:53:42.135Z,35.36
2018-07-26T11:54:51.941Z,35.38
2018-07-26T11:56:02.022Z,35
2018-07-26T11:57:11.842Z,33.36
2018-07-26T11:58:21.688Z,33.87
2018-07-26T11:59:31.285Z,34.06
2018-07-26T12:00:41.376Z,32.52
2018-07-26T12:01:51.439Z,31.44
2018-07-26T12:03:01.241Z,31.17
2018-07-26T12:04:10.782Z,31.38
2018-07-26T12:05:20.675Z,30.51
2018-07-26T12:06:30.205Z,30.13
2018-07-26T12:07:40.006Z,30.46
2018-07-26T12:08:50.102Z,29.58
2018-07-26T12:10:00.194Z,28.8
2018-07-26T12:11:09.838Z,28.22
2018-07-26T12:12:19.660Z,27.34
2018-07-26T12:13:29.763Z,27.16
2018-07-26T12:14:39.867Z,26.86
2018-07-26T12:15:50.003Z,26.87
2018-07-26T12:16:59.884Z,26.59
2018-07-26T12:18:09.975Z,26.49
2018-07-26T12:19:20.059Z,25.62
2018-07-26T12:20:30.147Z,25.54
2018-07-26T12:21:40.294Z,24.95
2018-07-26T12:22:50.425Z,24.27
2018-07-26T12:24:00.250Z,23.77
2018-07-26T12:25:10.067Z,24.85
2018-07-26T12:26:19.875Z,25.04
2018-07-26T12:27:29.984Z,24.16
2018-07-26T12:28:40.133Z,24.16
2018-07-26T12:29:50.203Z,23.77
2018-07-26T12:31:00.285Z,23.18
2018-07-26T12:32:09.847Z,23.18
2018-07-26T12:33:19.933Z,23.48
2018-07-26T12:34:30.061Z,23.08
2018-07-26T12:35:39.593Z,23.19
2018-07-26T12:36:49.559Z,22.71
2018-07-26T12:37:59.410Z,22.22
2018-07-26T12:39:09.232Z,21.72
2018-07-26T12:40:19.120Z,21.63
2018-07-26T12:41:29.277Z,22.23
2018-07-26T12:42:39.299Z,22.33
2018-07-26T12:43:49.133Z,20.45
2018-07-26T12:44:58.969Z,21.25
2018-07-26T12:46:08.574Z,21.73
2018-07-26T12:47:18.395Z,21.55
2018-07-26T12:48:28.640Z,21.44
2018-07-26T12:49:38.468Z,20.75
2018-07-26T12:50:48.588Z,21.44
2018-07-26T12:51:58.443Z,20.46
2018-07-26T12:53:08.614Z,20.95
2018-07-26T12:54:18.879Z,20.57
2018-07-26T12:55:28.964Z,20.48
2018-07-26T12:56:39.101Z,19.59
2018-07-26T12:57:49.247Z,19.99
2018-07-26T12:58:59.324Z,19.49
2018-07-26T13:00:08.645Z,19.49
2018-07-26T13:01:18.739Z,19.38
2018-07-26T13:02:28.949Z,19.1
2018-07-26T13:03:38.830Z,18.71
2018-07-26T13:04:48.927Z,19.12
2018-07-26T13:05:59.026Z,18.12
2018-07-26T13:07:08.947Z,18.81
2018-07-26T13:08:19.457Z,18.12
2018-07-26T13:09:29.335Z,18.41
2018-07-26T13:10:39.187Z,18.91
2018-07-26T13:11:49.290Z,18.72
2018-07-26T13:12:58.832Z,18.12
2018-07-26T13:14:08.653Z,17.93
2018-07-26T13:15:18.534Z,18.14
2018-07-26T13:16:28.639Z,18.15
2018-07-26T13:17:38.479Z,17.44
2018-07-26T13:18:48.550Z,17.44
2018-07-26T13:19:58.654Z,17.76
2018-07-26T13:21:08.801Z,17.44
2018-07-26T13:22:18.893Z,17.24
2018-07-26T13:23:28.447Z,17.55
2018-07-26T13:24:38.543Z,17.26
2018-07-26T13:25:48.094Z,16.86
2018-07-26T13:26:57.421Z,17.17
2018-07-26T13:28:06.972Z,16.56
2018-07-26T13:29:17.057Z,16.66
2018-07-26T13:30:26.895Z,16.46
2018-07-26T13:31:36.964Z,17.05
2018-07-26T13:32:47.090Z,17.16
2018-07-26T13:33:57.188Z,16.96
2018-07-26T13:35:06.738Z,17.17
2018-07-26T13:36:16.282Z,16.58
2018-07-26T13:37:26.097Z,16.38
2018-07-26T13:38:36.252Z,16.38
2018-07-26T13:39:46.086Z,15.98
2018-07-26T13:40:56.047Z,16.47
2018-07-26T13:42:06.143Z,16.17
2018-07-26T13:43:16.246Z,15.58
2018-07-26T13:44:26.145Z,16.67
2018-07-26T13:45:35.712Z,15.47
2018-07-26T13:46:45.808Z,16.85
2018-07-26T13:47:55.885Z,17.05
2018-07-26T13:49:05.725Z,16.45
2018-07-26T13:50:15.911Z,16.06
2018-07-26T13:51:26.005Z,16.46
2018-07-26T13:52:36.189Z,16.67
2018-07-26T13:53:46.259Z,16.56
2018-07-26T13:54:56.342Z,16.27
2018-07-26T13:56:06.225Z,14.97
2018-07-26T13:57:16.066Z,15.56
2018-07-26T13:58:25.942Z,15.97
2018-07-26T13:59:35.279Z,15.97
2018-07-26T14:00:45.368Z,15.28
2018-07-26T14:01:55.532Z,15.18
2018-07-26T14:03:05.077Z,15
2018-07-26T14:04:14.895Z,15.3
2018-07-26T14:05:24.451Z,14.4
2018-07-26T14:06:34.282Z,15.57
2018-07-26T14:07:44.448Z,15.36
2018-07-26T14:08:54.286Z,15.27
2018-07-26T14:10:04.393Z,14.78
2018-07-26T14:11:14.225Z,14.59
2018-07-26T14:12:24.328Z,14.48
2018-07-26T14:13:34.202Z,15.28
2018-07-26T14:14:44.285Z,14.38
2018-07-26T14:15:54.360Z,15.17
2018-07-26T14:17:05.121Z,14.87
2018-07-26T14:18:15.211Z,15.17
2018-07-26T14:19:25.374Z,14.98
2018-07-26T14:20:35.196Z,13.67
2018-07-26T14:21:45.120Z,13.87
2018-07-26T14:22:54.402Z,15.28
2018-07-26T14:24:04.249Z,14.87
2018-07-26T14:25:14.121Z,14.88
2018-07-26T14:26:24.221Z,14.29
2018-07-26T14:27:34.326Z,14.38
2018-07-26T14:28:44.037Z,14.28
2018-07-26T14:29:53.599Z,14.99
2018-07-26T14:31:03.496Z,14.39
2018-07-26T14:32:13.597Z,13.99
2018-07-26T14:33:23.157Z,14
2018-07-26T14:34:33.262Z,14.1
2018-07-26T14:35:42.808Z,14.09
2018-07-26T14:36:52.410Z,14
2018-07-26T14:38:02.237Z,13.3
2018-07-26T14:39:12.131Z,13.81
2018-07-26T14:40:22.235Z,13
2018-07-26T14:41:32.334Z,12.69
2018-07-26T14:42:42.482Z,13.78
2018-07-26T14:43:52.050Z,14.16
2018-07-26T14:45:02.421Z,13.97
2018-07-26T14:46:12.252Z,14.56
2018-07-26T14:47:21.799Z,14.38
2018-07-26T14:48:31.402Z,13.88
2018-07-26T14:49:40.941Z,13.68
2018-07-26T14:50:50.745Z,13.46
2018-07-26T14:52:00.718Z,15.05
2018-07-26T14:53:10.807Z,14.14
2018-07-26T14:54:20.955Z,14.25
2018-07-26T14:55:31.202Z,14.43
2018-07-26T14:56:41.045Z,15.52
2018-07-26T14:57:50.870Z,15.22
2018-07-26T14:59:00.697Z,15.03
2018-07-26T15:00:10.565Z,14.84
2018-07-26T15:01:20.418Z,14.85
2018-07-26T15:02:30.247Z,14.36
2018-07-26T15:03:40.346Z,13.87
2018-07-26T15:04:49.896Z,13.57
2018-07-26T15:05:59.773Z,13.37